sensor_id;sensor_type;location;lat;lon;timestamp;pressure;altitude;pressure_sealevel;temperature;humidity
54936;BME280;40838;50.676;7.838;2023-02-12T00:02:06;100351.03;;;4.66;100.00
54936;BME280;40838;50.676;7.838;2023-02-12T00:04:33;100352.78;;;4.80;100.00
54936;BME280;40838;50.676;7.838;2023-02-12T00:07:02;100351.97;;;4.58;100.00
54936;BME280;40838;50.676;7.838;2023-02-12T00:09:28;100360.06;;;4.20;100.00
54936;BME280;40838;50.676;7.838;2023-02-12T00:11:55;100357.81;;;4.54;100.00
54936;BME280;40838;50.676;7.838;2023-02-12T00:14:22;100365.25;;;4.65;100.00
54936;BME280;40838;50.676;7.838;2023-02-12T00:16:49;100363.91;;;4.54;100.00
54936;BME280;40838;50.676;7.838;2023-02-12T00:19:16;100364.84;;;4.47;100.00
54936;BME280;40838;50.676;7.838;2023-02-12T00:21:43;100361.44;;;4.53;100.00
54936;BME280;40838;50.676;7.838;2023-02-12T00:24:11;100363.84;;;4.69;100.00
54936;BME280;40838;50.676;7.838;2023-02-12T00:26:37;100365.25;;;4.65;100.00
54936;BME280;40838;50.676;7.838;2023-02-12T00:29:05;100367.81;;;4.80;100.00
54936;BME280;40838;50.676;7.838;2023-02-12T00:31:32;100362.53;;;4.80;100.00
54936;BME280;40838;50.676;7.838;2023-02-12T00:33:59;100368.88;;;4.64;100.00
54936;BME280;40838;50.676;7.838;2023-02-12T00:36:28;100356.75;;;4.70;100.00
54936;BME280;40838;50.676;7.838;2023-02-12T00:38:55;100356.38;;;4.73;100.00
54936;BME280;40838;50.676;7.838;2023-02-12T00:41:25;100363.91;;;4.76;100.00
54936;BME280;40838;50.676;7.838;2023-02-12T00:43:52;100360.19;;;4.92;100.00
54936;BME280;40838;50.676;7.838;2023-02-12T00:46:19;100364.91;;;4.96;100.00
54936;BME280;40838;50.676;7.838;2023-02-12T00:48:47;100362.00;;;5.12;100.00
54936;BME280;40838;50.676;7.838;2023-02-12T00:51:14;100359.13;;;5.14;100.00
54936;BME280;40838;50.676;7.838;2023-02-12T00:53:41;100360.59;;;4.88;100.00
54936;BME280;40838;50.676;7.838;2023-02-12T00:56:08;100359.91;;;5.08;100.00
54936;BME280;40838;50.676;7.838;2023-02-12T00:58:36;100351.94;;;5.01;100.00
54936;BME280;40838;50.676;7.838;2023-02-12T01:01:05;100351.75;;;5.03;100.00
54936;BME280;40838;50.676;7.838;2023-02-12T01:03:34;100347.34;;;5.10;100.00
54936;BME280;40838;50.676;7.838;2023-02-12T01:06:01;100353.44;;;5.10;100.00
54936;BME280;40838;50.676;7.838;2023-02-12T01:08:27;100355.44;;;4.59;100.00
54936;BME280;40838;50.676;7.838;2023-02-12T01:10:58;100364.03;;;4.89;100.00
54936;BME280;40838;50.676;7.838;2023-02-12T01:13:27;100357.25;;;4.80;100.00
54936;BME280;40838;50.676;7.838;2023-02-12T01:16:04;100353.47;;;4.89;100.00
54936;BME280;40838;50.676;7.838;2023-02-12T01:18:34;100359.44;;;4.76;100.00
54936;BME280;40838;50.676;7.838;2023-02-12T01:21:01;100366.50;;;4.69;100.00
54936;BME280;40838;50.676;7.838;2023-02-12T01:23:27;100361.72;;;4.58;100.00
54936;BME280;40838;50.676;7.838;2023-02-12T01:25:54;100358.81;;;4.53;100.00
54936;BME280;40838;50.676;7.838;2023-02-12T01:28:23;100363.53;;;4.79;100.00
54936;BME280;40838;50.676;7.838;2023-02-12T01:30:50;100368.59;;;5.02;100.00
54936;BME280;40838;50.676;7.838;2023-02-12T01:33:18;100364.38;;;5.07;100.00
54936;BME280;40838;50.676;7.838;2023-02-12T01:35:45;100363.38;;;5.08;100.00
54936;BME280;40838;50.676;7.838;2023-02-12T01:38:12;100361.41;;;4.89;100.00
54936;BME280;40838;50.676;7.838;2023-02-12T01:40:39;100359.63;;;4.75;100.00
54936;BME280;40838;50.676;7.838;2023-02-12T01:43:09;100367.81;;;4.80;100.00
54936;BME280;40838;50.676;7.838;2023-02-12T01:45:45;100370.31;;;4.66;100.00
54936;BME280;40838;50.676;7.838;2023-02-12T01:48:14;100358.50;;;4.84;100.00
54936;BME280;40838;50.676;7.838;2023-02-12T01:50:45;100360.44;;;4.75;100.00
54936;BME280;40838;50.676;7.838;2023-02-12T01:53:14;100345.97;;;4.93;100.00
54936;BME280;40838;50.676;7.838;2023-02-12T01:55:46;100350.63;;;4.90;100.00
54936;BME280;40838;50.676;7.838;2023-02-12T01:58:15;100350.53;;;5.05;100.00
54936;BME280;40838;50.676;7.838;2023-02-12T02:00:42;100344.81;;;5.02;100.00
54936;BME280;40838;50.676;7.838;2023-02-12T02:03:09;100346.44;;;4.75;100.00
54936;BME280;40838;50.676;7.838;2023-02-12T02:05:43;100345.13;;;4.64;100.00
54936;BME280;40838;50.676;7.838;2023-02-12T02:08:12;100347.44;;;4.74;100.00
54936;BME280;40838;50.676;7.838;2023-02-12T02:10:39;100348.19;;;4.67;100.00
54936;BME280;40838;50.676;7.838;2023-02-12T02:13:06;100340.91;;;4.91;100.00
54936;BME280;40838;50.676;7.838;2023-02-12T02:15:54;100342.78;;;4.97;100.00
54936;BME280;40838;50.676;7.838;2023-02-12T02:18:25;100345.84;;;5.01;100.00
54936;BME280;40838;50.676;7.838;2023-02-12T02:21:13;100335.06;;;5.02;100.00
54936;BME280;40838;50.676;7.838;2023-02-12T02:24:02;100339.13;;;4.98;100.00
54936;BME280;40838;50.676;7.838;2023-02-12T02:27:01;100335.16;;;5.09;100.00
54936;BME280;40838;50.676;7.838;2023-02-12T02:32:23;100322.75;;;5.09;100.00
54936;BME280;40838;50.676;7.838;2023-02-12T02:34:54;100330.91;;;5.15;100.00
54936;BME280;40838;50.676;7.838;2023-02-12T02:37:27;100323.84;;;5.22;100.00
54936;BME280;40838;50.676;7.838;2023-02-12T02:39:59;100322.22;;;5.21;100.00
54936;BME280;40838;50.676;7.838;2023-02-12T02:42:36;100325.09;;;4.98;100.00
54936;BME280;40838;50.676;7.838;2023-02-12T02:45:09;100322.88;;;5.01;100.00
54936;BME280;40838;50.676;7.838;2023-02-12T02:47:42;100327.44;;;5.14;100.00
54936;BME280;40838;50.676;7.838;2023-02-12T02:50:12;100328.88;;;5.17;100.00
54936;BME280;40838;50.676;7.838;2023-02-12T02:52:44;100331.13;;;5.20;100.00
54936;BME280;40838;50.676;7.838;2023-02-12T02:55:15;100322.03;;;5.29;100.00
54936;BME280;40838;50.676;7.838;2023-02-12T02:57:46;100328.69;;;5.18;100.00
54936;BME280;40838;50.676;7.838;2023-02-12T03:02:49;100321.16;;;5.15;100.00
54936;BME280;40838;50.676;7.838;2023-02-12T03:05:21;100311.41;;;5.16;100.00
54936;BME280;40838;50.676;7.838;2023-02-12T03:07:51;100314.75;;;5.31;100.00
54936;BME280;40838;50.676;7.838;2023-02-12T03:10:22;100308.09;;;5.35;100.00
54936;BME280;40838;50.676;7.838;2023-02-12T03:12:53;100313.94;;;5.30;100.00
54936;BME280;40838;50.676;7.838;2023-02-12T03:15:25;100316.25;;;5.12;100.00
54936;BME280;40838;50.676;7.838;2023-02-12T03:17:59;100320.34;;;5.15;100.00
54936;BME280;40838;50.676;7.838;2023-02-12T03:20:29;100318.84;;;5.33;100.00
54936;BME280;40838;50.676;7.838;2023-02-12T03:23:00;100321.09;;;5.37;100.00
54936;BME280;40838;50.676;7.838;2023-02-12T03:25:33;100313.38;;;5.35;100.00
54936;BME280;40838;50.676;7.838;2023-02-12T03:28:04;100311.94;;;5.32;100.00
54936;BME280;40838;50.676;7.838;2023-02-12T03:30:41;100313.47;;;4.92;100.00
54936;BME280;40838;50.676;7.838;2023-02-12T03:33:18;100320.97;;;5.17;100.00
54936;BME280;40838;50.676;7.838;2023-02-12T03:35:54;100327.13;;;5.24;100.00
54936;BME280;40838;50.676;7.838;2023-02-12T03:38:30;100321.19;;;5.22;100.00
54936;BME280;40838;50.676;7.838;2023-02-12T03:41:04;100319.06;;;5.39;100.00
54936;BME280;40838;50.676;7.838;2023-02-12T03:43:37;100319.06;;;5.39;100.00
54936;BME280;40838;50.676;7.838;2023-02-12T03:46:15;100331.78;;;5.22;100.00
54936;BME280;40838;50.676;7.838;2023-02-12T03:48:48;100327.53;;;5.27;100.00
54936;BME280;40838;50.676;7.838;2023-02-12T03:51:24;100330.72;;;5.16;100.00
54936;BME280;40838;50.676;7.838;2023-02-12T03:53:55;100330.56;;;5.24;100.00
54936;BME280;40838;50.676;7.838;2023-02-12T03:56:24;100336.50;;;5.26;100.00
54936;BME280;40838;50.676;7.838;2023-02-12T03:58:53;100334.16;;;5.45;100.00
54936;BME280;40838;50.676;7.838;2023-02-12T04:01:19;100350.81;;;5.45;100.00
54936;BME280;40838;50.676;7.838;2023-02-12T04:03:48;100341.19;;;5.31;100.00
54936;BME280;40838;50.676;7.838;2023-02-12T04:06:19;100337.75;;;5.37;100.00
54936;BME280;40838;50.676;7.838;2023-02-12T04:08:47;100340.75;;;5.27;100.00
54936;BME280;40838;50.676;7.838;2023-02-12T04:11:21;100344.34;;;5.20;100.00
54936;BME280;40838;50.676;7.838;2023-02-12T04:14:03;100341.81;;;5.05;100.00
54936;BME280;40838;50.676;7.838;2023-02-12T04:16:40;100344.16;;;4.93;100.00
54936;BME280;40838;50.676;7.838;2023-02-12T04:19:14;100343.97;;;4.95;100.00
54936;BME280;40838;50.676;7.838;2023-02-12T04:21:55;100343.47;;;5.06;100.00
54936;BME280;40838;50.676;7.838;2023-02-12T04:24:32;100350.09;;;5.23;100.00
54936;BME280;40838;50.676;7.838;2023-02-12T04:27:09;100353.81;;;5.07;100.00
54936;BME280;40838;50.676;7.838;2023-02-12T04:29:44;100359.09;;;5.07;100.00
54936;BME280;40838;50.676;7.838;2023-02-12T04:32:17;100357.94;;;5.17;100.00
54936;BME280;40838;50.676;7.838;2023-02-12T04:34:50;100363.22;;;5.17;100.00
54936;BME280;40838;50.676;7.838;2023-02-12T04:37:22;100365.06;;;5.16;100.00
54936;BME280;40838;50.676;7.838;2023-02-12T04:39:50;100358.03;;;5.02;100.00
54936;BME280;40838;50.676;7.838;2023-02-12T04:42:19;100362.94;;;5.05;100.00
54936;BME280;40838;50.676;7.838;2023-02-12T04:44:46;100370.56;;;5.15;100.00
54936;BME280;40838;50.676;7.838;2023-02-12T04:47:15;100372.06;;;5.30;100.00
54936;BME280;40838;50.676;7.838;2023-02-12T04:49:42;100367.44;;;5.11;100.00
54936;BME280;40838;50.676;7.838;2023-02-12T04:52:10;100361.94;;;5.06;100.00
54936;BME280;40838;50.676;7.838;2023-02-12T04:54:37;100362.81;;;5.13;100.00
54936;BME280;40838;50.676;7.838;2023-02-12T04:57:04;100361.41;;;5.45;100.00
54936;BME280;40838;50.676;7.838;2023-02-12T04:59:31;100365.00;;;5.38;100.00
54936;BME280;40838;50.676;7.838;2023-02-12T05:01:58;100365.66;;;5.46;100.00
54936;BME280;40838;50.676;7.838;2023-02-12T05:04:24;100360.44;;;5.25;100.00
54936;BME280;40838;50.676;7.838;2023-02-12T05:06:51;100362.84;;;5.20;100.00
54936;BME280;40838;50.676;7.838;2023-02-12T05:09:20;100366.44;;;5.40;100.00
54936;BME280;40838;50.676;7.838;2023-02-12T05:11:46;100359.09;;;5.07;100.00
54936;BME280;40838;50.676;7.838;2023-02-12T05:14:14;100366.56;;;3.88;100.00
54936;BME280;40838;50.676;7.838;2023-02-12T05:16:41;100370.50;;;3.92;100.00
54936;BME280;40838;50.676;7.838;2023-02-12T05:19:07;100366.50;;;4.69;100.00
54936;BME280;40838;50.676;7.838;2023-02-12T05:21:35;100373.19;;;4.93;100.00
54936;BME280;40838;50.676;7.838;2023-02-12T05:24:02;100374.84;;;4.73;100.00
54936;BME280;40838;50.676;7.838;2023-02-12T05:26:30;100367.09;;;4.13;100.00
54936;BME280;40838;50.676;7.838;2023-02-12T05:28:57;100368.97;;;4.34;100.00
54936;BME280;40838;50.676;7.838;2023-02-12T05:31:24;100373.84;;;4.74;100.00
54936;BME280;40838;50.676;7.838;2023-02-12T05:33:51;100369.63;;;5.01;100.00
54936;BME280;40838;50.676;7.838;2023-02-12T05:36:19;100371.25;;;5.02;100.00
54936;BME280;40838;50.676;7.838;2023-02-12T05:38:47;100368.22;;;5.05;100.00
54936;BME280;40838;50.676;7.838;2023-02-12T05:41:16;100370.69;;;5.06;100.00
54936;BME280;40838;50.676;7.838;2023-02-12T05:43:45;100372.56;;;5.12;100.00
54936;BME280;40838;50.676;7.838;2023-02-12T05:46:12;100369.28;;;5.10;100.00
54936;BME280;40838;50.676;7.838;2023-02-12T05:48:39;100366.78;;;5.02;100.00
54936;BME280;40838;50.676;7.838;2023-02-12T05:51:08;100371.28;;;5.08;100.00
54936;BME280;40838;50.676;7.838;2023-02-12T05:53:36;100372.97;;;5.16;100.00
54936;BME280;40838;50.676;7.838;2023-02-12T05:56:11;100371.91;;;5.32;100.00
54936;BME280;40838;50.676;7.838;2023-02-12T05:58:39;100371.03;;;5.25;100.00
54936;BME280;40838;50.676;7.838;2023-02-12T06:01:13;100372.13;;;5.37;100.00
54936;BME280;40838;50.676;7.838;2023-02-12T06:03:41;100369.00;;;5.27;100.00
54936;BME280;40838;50.676;7.838;2023-02-12T06:06:08;100375.88;;;5.21;100.00
54936;BME280;40838;50.676;7.838;2023-02-12T06:08:35;100374.06;;;5.22;100.00
54936;BME280;40838;50.676;7.838;2023-02-12T06:11:04;100377.06;;;5.19;100.00
54936;BME280;40838;50.676;7.838;2023-02-12T06:13:33;100376.94;;;5.27;100.00
54936;BME280;40838;50.676;7.838;2023-02-12T06:15:59;100379.84;;;5.32;100.00
54936;BME280;40838;50.676;7.838;2023-02-12T06:18:28;100383.34;;;5.46;100.00
54936;BME280;40838;50.676;7.838;2023-02-12T06:20:55;100383.19;;;5.47;100.00
54936;BME280;40838;50.676;7.838;2023-02-12T06:23:23;100390.06;;;5.42;100.00
54936;BME280;40838;50.676;7.838;2023-02-12T06:25:54;100388.13;;;5.29;100.00
54936;BME280;40838;50.676;7.838;2023-02-12T06:28:21;100385.44;;;5.22;100.00
54936;BME280;40838;50.676;7.838;2023-02-12T06:30:48;100391.25;;;5.39;100.00
54936;BME280;40838;50.676;7.838;2023-02-12T06:33:15;100395.22;;;5.28;100.00
54936;BME280;40838;50.676;7.838;2023-02-12T06:35:43;100390.16;;;5.27;100.00
54936;BME280;40838;50.676;7.838;2023-02-12T06:38:11;100392.16;;;5.25;100.00
54936;BME280;40838;50.676;7.838;2023-02-12T06:40:38;100403.06;;;4.51;100.00
54936;BME280;40838;50.676;7.838;2023-02-12T06:43:04;100404.25;;;4.48;100.00
54936;BME280;40838;50.676;7.838;2023-02-12T06:45:32;100404.84;;;4.29;100.00
54936;BME280;40838;50.676;7.838;2023-02-12T06:47:58;100403.97;;;4.43;100.00
54936;BME280;40838;50.676;7.838;2023-02-12T06:50:25;100416.50;;;4.05;100.00
54936;BME280;40838;50.676;7.838;2023-02-12T06:52:54;100415.47;;;3.61;100.00
54936;BME280;40838;50.676;7.838;2023-02-12T06:55:21;100408.75;;;4.03;100.00
54936;BME280;40838;50.676;7.838;2023-02-12T06:57:47;100415.19;;;4.66;100.00
54936;BME280;40838;50.676;7.838;2023-02-12T07:00:15;100412.44;;;4.75;100.00
54936;BME280;40838;50.676;7.838;2023-02-12T07:02:42;100418.84;;;4.87;100.00
54936;BME280;40838;50.676;7.838;2023-02-12T07:05:09;100413.47;;;4.74;100.00
54936;BME280;40838;50.676;7.838;2023-02-12T07:07:36;100411.00;;;4.94;100.00
54936;BME280;40838;50.676;7.838;2023-02-12T07:10:05;100418.31;;;4.92;100.00
54936;BME280;40838;50.676;7.838;2023-02-12T07:12:33;100424.13;;;5.08;100.00
54936;BME280;40838;50.676;7.838;2023-02-12T07:15:00;100423.97;;;4.88;100.00
54936;BME280;40838;50.676;7.838;2023-02-12T07:17:28;100426.88;;;4.57;100.00
54936;BME280;40838;50.676;7.838;2023-02-12T07:19:55;100433.56;;;4.23;100.00
54936;BME280;40838;50.676;7.838;2023-02-12T07:22:22;100432.09;;;3.62;100.00
54936;BME280;40838;50.676;7.838;2023-02-12T07:24:49;100437.66;;;4.41;100.00
54936;BME280;40838;50.676;7.838;2023-02-12T07:27:17;100444.28;;;5.09;100.00
54936;BME280;40838;50.676;7.838;2023-02-12T07:29:44;100440.94;;;5.01;100.00
54936;BME280;40838;50.676;7.838;2023-02-12T07:32:11;100441.25;;;5.41;100.00
54936;BME280;40838;50.676;7.838;2023-02-12T07:34:38;100446.53;;;5.12;100.00
54936;BME280;40838;50.676;7.838;2023-02-12T07:37:05;100445.47;;;4.49;100.00
54936;BME280;40838;50.676;7.838;2023-02-12T07:39:32;100446.06;;;4.66;100.00
54936;BME280;40838;50.676;7.838;2023-02-12T07:41:59;100451.88;;;4.10;100.00
54936;BME280;40838;50.676;7.838;2023-02-12T07:44:27;100452.41;;;4.50;100.00
54936;BME280;40838;50.676;7.838;2023-02-12T07:46:55;100447.47;;;4.62;100.00
54936;BME280;40838;50.676;7.838;2023-02-12T07:49:22;100454.09;;;5.16;100.00
54936;BME280;40838;50.676;7.838;2023-02-12T07:51:49;100447.66;;;5.25;100.00
54936;BME280;40838;50.676;7.838;2023-02-12T07:54:16;100455.06;;;5.36;100.00
54936;BME280;40838;50.676;7.838;2023-02-12T07:56:43;100449.88;;;5.49;100.00
54936;BME280;40838;50.676;7.838;2023-02-12T07:59:12;100450.50;;;5.23;100.00
54936;BME280;40838;50.676;7.838;2023-02-12T08:01:42;100448.28;;;5.55;100.00
54936;BME280;40838;50.676;7.838;2023-02-12T08:04:12;100452.06;;;4.96;100.00
54936;BME280;40838;50.676;7.838;2023-02-12T08:06:42;100452.84;;;5.11;100.00
54936;BME280;40838;50.676;7.838;2023-02-12T08:09:11;100448.50;;;4.67;100.00
54936;BME280;40838;50.676;7.838;2023-02-12T08:11:39;100446.47;;;4.84;100.00
54936;BME280;40838;50.676;7.838;2023-02-12T08:14:06;100449.31;;;4.83;100.00
54936;BME280;40838;50.676;7.838;2023-02-12T08:16:35;100444.25;;;5.31;100.00
54936;BME280;40838;50.676;7.838;2023-02-12T08:19:04;100440.50;;;4.97;100.00
54936;BME280;40838;50.676;7.838;2023-02-12T08:21:31;100443.06;;;4.90;100.00
54936;BME280;40838;50.676;7.838;2023-02-12T08:23:58;100450.75;;;4.49;100.00
54936;BME280;40838;50.676;7.838;2023-02-12T08:26:27;100450.59;;;5.37;100.00
54936;BME280;40838;50.676;7.838;2023-02-12T08:28:56;100451.00;;;5.62;100.00
54936;BME280;40838;50.676;7.838;2023-02-12T08:31:26;100452.09;;;5.74;100.00
54936;BME280;40838;50.676;7.838;2023-02-12T08:33:54;100445.53;;;5.91;100.00
54936;BME280;40838;50.676;7.838;2023-02-12T08:36:24;100445.13;;;5.94;100.00
54936;BME280;40838;50.676;7.838;2023-02-12T08:38:51;100449.38;;;6.30;100.00
54936;BME280;40838;50.676;7.838;2023-02-12T08:41:20;100453.59;;;6.18;100.00
54936;BME280;40838;50.676;7.838;2023-02-12T08:43:48;100455.53;;;5.68;100.00
54936;BME280;40838;50.676;7.838;2023-02-12T08:46:17;100453.06;;;4.95;100.00
54936;BME280;40838;50.676;7.838;2023-02-12T08:48:45;100446.91;;;5.59;100.00
54936;BME280;40838;50.676;7.838;2023-02-12T08:51:14;100453.63;;;6.73;100.00
54936;BME280;40838;50.676;7.838;2023-02-12T08:53:44;100448.41;;;7.59;100.00
54936;BME280;40838;50.676;7.838;2023-02-12T08:58:46;100442.53;;;8.22;100.00
54936;BME280;40838;50.676;7.838;2023-02-12T09:01:17;100446.25;;;8.07;100.00
54936;BME280;40838;50.676;7.838;2023-02-12T09:03:45;100443.75;;;9.09;100.00
54936;BME280;40838;50.676;7.838;2023-02-12T09:06:13;100442.47;;;9.12;100.00
54936;BME280;40838;50.676;7.838;2023-02-12T09:08:43;100440.19;;;10.09;94.66
54936;BME280;40838;50.676;7.838;2023-02-12T09:14:16;100437.03;;;9.75;96.61
54936;BME280;40838;50.676;7.838;2023-02-12T09:16:48;100443.19;;;9.26;99.67
54936;BME280;40838;50.676;7.838;2023-02-12T09:19:17;100440.22;;;8.39;100.00
54936;BME280;40838;50.676;7.838;2023-02-12T09:21:44;100451.47;;;7.36;100.00
54936;BME280;40838;50.676;7.838;2023-02-12T09:24:12;100454.25;;;6.81;100.00
54936;BME280;40838;50.676;7.838;2023-02-12T09:26:39;100450.09;;;6.59;100.00
54936;BME280;40838;50.676;7.838;2023-02-12T09:29:06;100448.38;;;7.12;100.00
54936;BME280;40838;50.676;7.838;2023-02-12T09:31:33;100446.34;;;7.48;100.00
54936;BME280;40838;50.676;7.838;2023-02-12T09:34:01;100453.44;;;7.01;100.00
54936;BME280;40838;50.676;7.838;2023-02-12T09:36:28;100453.22;;;8.02;100.00
54936;BME280;40838;50.676;7.838;2023-02-12T09:38:56;100447.34;;;7.80;100.00
54936;BME280;40838;50.676;7.838;2023-02-12T09:41:52;100449.38;;;8.49;100.00
54936;BME280;40838;50.676;7.838;2023-02-12T09:44:28;100448.97;;;7.74;100.00
54936;BME280;40838;50.676;7.838;2023-02-12T09:47:00;100449.09;;;8.19;100.00
54936;BME280;40838;50.676;7.838;2023-02-12T09:49:43;100446.50;;;7.99;100.00
54936;BME280;40838;50.676;7.838;2023-02-12T09:52:18;100449.59;;;7.76;100.00
54936;BME280;40838;50.676;7.838;2023-02-12T09:54:47;100450.81;;;7.80;100.00
54936;BME280;40838;50.676;7.838;2023-02-12T09:57:22;100451.22;;;7.71;100.00
54936;BME280;40838;50.676;7.838;2023-02-12T09:59:55;100459.19;;;7.71;100.00
54936;BME280;40838;50.676;7.838;2023-02-12T10:02:23;100460.31;;;6.68;100.00
54936;BME280;40838;50.676;7.838;2023-02-12T10:04:51;100453.72;;;7.52;100.00
54936;BME280;40838;50.676;7.838;2023-02-12T10:07:29;100452.59;;;8.06;100.00
54936;BME280;40838;50.676;7.838;2023-02-12T10:10:08;100460.03;;;7.51;100.00
54936;BME280;40838;50.676;7.838;2023-02-12T10:12:46;100455.34;;;7.53;100.00
54936;BME280;40838;50.676;7.838;2023-02-12T10:15:37;100461.41;;;7.07;100.00
54936;BME280;40838;50.676;7.838;2023-02-12T10:18:18;100462.88;;;7.56;100.00
54936;BME280;40838;50.676;7.838;2023-02-12T10:20:55;100461.47;;;7.34;100.00
54936;BME280;40838;50.676;7.838;2023-02-12T10:23:45;100467.38;;;7.49;100.00
54936;BME280;40838;50.676;7.838;2023-02-12T10:26:18;100477.91;;;7.03;100.00
54936;BME280;40838;50.676;7.838;2023-02-12T10:28:48;100473.72;;;6.60;100.00
54936;BME280;40838;50.676;7.838;2023-02-12T10:31:21;100471.59;;;6.90;100.00
54936;BME280;40838;50.676;7.838;2023-02-12T10:33:51;100466.88;;;6.92;100.00
54936;BME280;40838;50.676;7.838;2023-02-12T10:36:28;100460.41;;;7.68;100.00
54936;BME280;40838;50.676;7.838;2023-02-12T10:39:02;100457.91;;;8.00;100.00
54936;BME280;40838;50.676;7.838;2023-02-12T10:41:35;100459.56;;;7.94;100.00
54936;BME280;40838;50.676;7.838;2023-02-12T10:44:08;100463.00;;;8.08;100.00
54936;BME280;40838;50.676;7.838;2023-02-12T10:46:35;100464.06;;;7.80;100.00
54936;BME280;40838;50.676;7.838;2023-02-12T10:49:04;100461.84;;;7.71;100.00
54936;BME280;40838;50.676;7.838;2023-02-12T10:51:47;100459.56;;;7.94;100.00
54936;BME280;40838;50.676;7.838;2023-02-12T10:54:40;100452.06;;;7.78;100.00
54936;BME280;40838;50.676;7.838;2023-02-12T10:57:13;100449.59;;;7.76;100.00
54936;BME280;40838;50.676;7.838;2023-02-12T10:59:43;100451.03;;;7.79;100.00
54936;BME280;40838;50.676;7.838;2023-02-12T11:02:22;100453.50;;;7.27;100.00
54936;BME280;40838;50.676;7.838;2023-02-12T11:04:50;100461.50;;;6.66;100.00
54936;BME280;40838;50.676;7.838;2023-02-12T11:07:18;100455.09;;;7.02;100.00
54936;BME280;40838;50.676;7.838;2023-02-12T11:09:46;100437.59;;;7.47;100.00
54936;BME280;40838;50.676;7.838;2023-02-12T11:12:19;100440.66;;;7.37;100.00
54936;BME280;40838;50.676;7.838;2023-02-12T11:14:52;100436.19;;;7.31;100.00
54936;BME280;40838;50.676;7.838;2023-02-12T11:17:23;100435.75;;;7.54;100.00
54936;BME280;40838;50.676;7.838;2023-02-12T11:20:02;100440.03;;;7.22;100.00
54936;BME280;40838;50.676;7.838;2023-02-12T11:22:30;100435.16;;;7.32;100.00
54936;BME280;40838;50.676;7.838;2023-02-12T11:24:59;100430.38;;;7.88;100.00
54936;BME280;40838;50.676;7.838;2023-02-12T11:27:29;100430.28;;;8.21;100.00
54936;BME280;40838;50.676;7.838;2023-02-12T11:30:16;100422.94;;;8.23;100.00
54936;BME280;40838;50.676;7.838;2023-02-12T11:32:44;100426.25;;;8.05;100.00
54936;BME280;40838;50.676;7.838;2023-02-12T11:35:15;100421.16;;;8.10;100.00
54936;BME280;40838;50.676;7.838;2023-02-12T11:37:48;100434.69;;;6.89;100.00
54936;BME280;40838;50.676;7.838;2023-02-12T11:40:19;100432.66;;;6.84;100.00
54936;BME280;40838;50.676;7.838;2023-02-12T11:42:50;100436.84;;;6.52;100.00
54936;BME280;40838;50.676;7.838;2023-02-12T11:45:24;100434.19;;;6.52;100.00
54936;BME280;40838;50.676;7.838;2023-02-12T11:47:52;100428.59;;;7.02;100.00
54936;BME280;40838;50.676;7.838;2023-02-12T11:50:25;100417.59;;;7.58;100.00
54936;BME280;40838;50.676;7.838;2023-02-12T11:52:55;100413.13;;;8.23;100.00
54936;BME280;40838;50.676;7.838;2023-02-12T11:55:25;100412.38;;;8.03;100.00
54936;BME280;40838;50.676;7.838;2023-02-12T11:57:54;100410.06;;;8.20;100.00
54936;BME280;40838;50.676;7.838;2023-02-12T12:00:31;100410.34;;;8.05;100.00
54936;BME280;40838;50.676;7.838;2023-02-12T12:03:02;100408.03;;;8.15;100.00
54936;BME280;40838;50.676;7.838;2023-02-12T12:05:38;100400.19;;;8.40;100.00
54936;BME280;40838;50.676;7.838;2023-02-12T12:08:14;100401.94;;;8.60;100.00
54936;BME280;40838;50.676;7.838;2023-02-12T12:10:45;100402.78;;;8.47;100.00
54936;BME280;40838;50.676;7.838;2023-02-12T12:13:15;100408.88;;;8.16;100.00
54936;BME280;40838;50.676;7.838;2023-02-12T12:15:49;100412.44;;;7.83;100.00
54936;BME280;40838;50.676;7.838;2023-02-12T12:18:41;100402.47;;;7.72;100.00
54936;BME280;40838;50.676;7.838;2023-02-12T12:21:35;100403.50;;;7.51;100.00
54936;BME280;40838;50.676;7.838;2023-02-12T12:24:08;100398.53;;;7.94;100.00
54936;BME280;40838;50.676;7.838;2023-02-12T12:26:40;100405.69;;;8.45;100.00
54936;BME280;40838;50.676;7.838;2023-02-12T12:29:14;100398.91;;;8.49;100.00
54936;BME280;40838;50.676;7.838;2023-02-12T12:31:45;100400.88;;;8.22;100.00
54936;BME280;40838;50.676;7.838;2023-02-12T12:34:15;100395.03;;;8.07;100.00
54936;BME280;40838;50.676;7.838;2023-02-12T12:37:11;100388.56;;;7.90;100.00
54936;BME280;40838;50.676;7.838;2023-02-12T12:39:53;100396.19;;;7.39;100.00
54936;BME280;40838;50.676;7.838;2023-02-12T12:45:52;100376.88;;;8.04;100.00
54936;BME280;40838;50.676;7.838;2023-02-12T12:48:35;100377.25;;;8.46;100.00
54936;BME280;40838;50.676;7.838;2023-02-12T12:51:18;100382.09;;;8.17;100.00
54936;BME280;40838;50.676;7.838;2023-02-12T12:53:57;100375.22;;;8.03;100.00
54936;BME280;40838;50.676;7.838;2023-02-12T12:56:57;100383.16;;;8.10;100.00
54936;BME280;40838;50.676;7.838;2023-02-12T12:59:40;100372.53;;;8.16;100.00
54936;BME280;40838;50.676;7.838;2023-02-12T13:02:49;100369.25;;;7.49;100.00
54936;BME280;40838;50.676;7.838;2023-02-12T13:08:42;100358.25;;;8.49;100.00
54936;BME280;40838;50.676;7.838;2023-02-12T13:11:22;100362.66;;;8.23;100.00
54936;BME280;40838;50.676;7.838;2023-02-12T13:14:06;100360.06;;;8.17;100.00
54936;BME280;40838;50.676;7.838;2023-02-12T13:16:39;100358.19;;;7.66;100.00
54936;BME280;40838;50.676;7.838;2023-02-12T13:19:14;100358.84;;;7.61;100.00
54936;BME280;40838;50.676;7.838;2023-02-12T13:21:50;100357.47;;;7.97;100.00
54936;BME280;40838;50.676;7.838;2023-02-12T13:24:26;100348.88;;;7.36;100.00
54936;BME280;40838;50.676;7.838;2023-02-12T13:26:57;100348.88;;;7.36;100.00
54936;BME280;40838;50.676;7.838;2023-02-12T13:29:28;100341.47;;;7.65;100.00